Time;durP1;ratioP1;P1;durP2;ratioP2;P2;SDS_P1;SDS_P2;PMS_P1;PMS_P2;Temp;Humidity;BMP_temperature;BMP_pressure;BME280_temperature;BME280_humidity;BME280_pressure;Samples;Min_cycle;Max_cycle;Signal;HPM_P1;HPM_P2
2020/12/15 00:01:53;;;;;;;13.23;6.70;;;5.30;87.30;;;;;;5056503;28;20041;-89
2020/12/15 00:04:19;;;;;;;13.93;7.80;;;5.30;87.40;;;;;;5036728;28;20057;-89
2020/12/15 00:06:45;;;;;;;13.03;6.67;;;5.30;87.20;;;;;;5035664;28;20030;-89
2020/12/15 00:09:10;;;;;;;15.30;7.03;;;5.30;87.20;;;;;;5035584;28;20029;-90
2020/12/15 00:11:36;;;;;;;10.90;5.97;;;5.30;87.20;;;;;;5035239;28;20236;-90
2020/12/15 00:14:01;;;;;;;11.50;6.40;;;5.30;87.50;;;;;;5046726;28;20048;-90
2020/12/15 00:16:27;;;;;;;10.67;5.83;;;5.30;87.30;;;;;;5058751;28;20032;-90
2020/12/15 00:18:53;;;;;;;12.50;6.57;;;5.30;87.40;;;;;;5058919;28;20024;-90
2020/12/15 00:21:23;;;;;;;11.40;6.30;;;5.40;87.40;;;;;;5058839;28;20074;-90
2020/12/15 00:23:50;;;;;;;12.50;6.97;;;5.30;87.30;;;;;;5059192;28;20059;-90
2020/12/15 00:26:17;;;;;;;10.73;6.27;;;5.40;87.60;;;;;;5058898;28;20031;-90
2020/12/15 00:28:43;;;;;;;13.20;6.17;;;5.40;87.30;;;;;;5058514;28;20469;-90
2020/12/15 00:31:09;;;;;;;13.90;5.93;;;5.40;87.20;;;;;;5076397;28;20025;-90
2020/12/15 00:33:35;;;;;;;12.43;6.10;;;5.40;87.10;;;;;;5057966;28;20090;-89
2020/12/15 00:36:01;;;;;;;8.63;5.77;;;5.40;87.20;;;;;;5058520;28;20055;-90
2020/12/15 00:38:26;;;;;;;11.23;6.10;;;5.40;87.30;;;;;;5058074;28;20032;-89
2020/12/15 00:40:52;;;;;;;10.27;5.90;;;5.40;87.40;;;;;;5058662;28;20056;-89
2020/12/15 00:43:18;;;;;;;11.40;5.87;;;5.40;87.40;;;;;;5058499;28;20033;-89
2020/12/15 00:45:53;;;;;;;10.67;6.23;;;5.40;87.40;;;;;;5075570;28;20025;-89
2020/12/15 00:48:18;;;;;;;9.97;5.70;;;5.40;87.40;;;;;;5058593;28;20119;-89
2020/12/15 00:51:02;;;;;;;10.20;5.57;;;5.40;87.60;;;;;;5075812;28;20071;-89
2020/12/15 00:53:28;;;;;;;10.83;5.53;;;5.50;87.90;;;;;;5075444;28;20086;-89
2020/12/15 00:55:53;;;;;;;10.93;5.77;;;5.50;87.80;;;;;;5076050;28;20033;-89
2020/12/15 00:58:19;;;;;;;8.23;5.50;;;5.50;87.70;;;;;;5058149;28;20024;-90
2020/12/15 01:00:45;;;;;;;11.47;6.30;;;5.50;87.90;;;;;;5057689;28;20056;-89
2020/12/15 01:03:10;;;;;;;10.53;5.93;;;5.50;88.00;;;;;;5058168;28;20452;-90
2020/12/15 01:05:36;;;;;;;9.63;5.83;;;5.50;88.00;;;;;;5057710;28;20431;-90
2020/12/15 01:08:02;;;;;;;12.17;6.27;;;5.50;88.00;;;;;;5057586;28;20024;-90
2020/12/15 01:10:28;;;;;;;10.97;5.83;;;5.50;88.30;;;;;;5075187;28;20054;-89
2020/12/15 01:12:54;;;;;;;12.83;5.70;;;5.60;88.10;;;;;;5058119;28;20465;-90
2020/12/15 01:15:19;;;;;;;11.93;5.87;;;5.50;88.00;;;;;;5057802;28;20031;-90
2020/12/15 01:17:45;;;;;;;11.83;6.20;;;5.60;88.10;;;;;;5057229;28;20111;-90
2020/12/15 01:20:11;;;;;;;9.47;5.83;;;5.60;88.00;;;;;;5058038;28;20419;-90
2020/12/15 01:22:36;;;;;;;12.97;6.60;;;5.70;88.10;;;;;;5057138;28;20032;-90
2020/12/15 01:25:02;;;;;;;11.00;6.00;;;5.70;88.10;;;;;;5057993;28;20029;-89
2020/12/15 01:27:28;;;;;;;10.77;5.67;;;5.60;88.40;;;;;;5087367;28;20112;-88
2020/12/15 01:29:53;;;;;;;8.20;5.23;;;5.60;88.30;;;;;;5074261;28;20123;-88
2020/12/15 01:32:19;;;;;;;10.77;5.70;;;5.70;88.20;;;;;;5093153;28;20079;-88
2020/12/15 01:34:44;;;;;;;9.10;5.40;;;5.70;88.20;;;;;;5076280;28;20096;-89
2020/12/15 01:37:10;;;;;;;9.03;5.33;;;5.60;88.30;;;;;;5076357;28;20029;-89
2020/12/15 01:39:35;;;;;;;10.73;5.90;;;5.70;88.50;;;;;;5076042;28;20019;-88
2020/12/15 01:42:01;;;;;;;13.23;7.10;;;5.70;88.40;;;;;;5077740;28;20091;-87
2020/12/15 01:44:27;;;;;;;10.93;5.80;;;5.70;88.60;;;;;;5094603;28;20080;-88
2020/12/15 01:46:52;;;;;;;10.57;5.90;;;5.70;88.70;;;;;;5063905;28;20059;-90
2020/12/15 01:49:19;;;;;;;12.70;5.97;;;5.70;88.90;;;;;;5058185;28;20028;-90
2020/12/15 01:51:48;;;;;;;8.47;5.30;;;5.70;88.90;;;;;;5057313;28;20268;-90
2020/12/15 01:54:14;;;;;;;11.40;5.50;;;5.70;88.90;;;;;;5057248;28;20024;-89
2020/12/15 01:56:39;;;;;;;9.90;5.17;;;5.80;88.90;;;;;;5056758;28;20491;-89
2020/12/15 01:59:06;;;;;;;9.90;5.43;;;5.80;88.90;;;;;;5057145;28;20070;-90
2020/12/15 02:01:46;;;;;;;9.30;5.40;;;5.80;89.00;;;;;;5074127;28;20100;-89
2020/12/15 02:04:12;;;;;;;9.73;5.23;;;5.80;89.10;;;;;;5057344;28;20035;-90
2020/12/15 02:06:40;;;;;;;9.90;5.23;;;5.80;89.20;;;;;;5074071;28;20027;-89
2020/12/15 02:09:06;;;;;;;11.00;5.40;;;5.90;89.20;;;;;;5074609;28;20027;-90
2020/12/15 02:11:33;;;;;;;11.30;5.27;;;5.90;89.30;;;;;;5056326;28;20037;-89
2020/12/15 02:13:58;;;;;;;12.30;5.40;;;5.90;89.20;;;;;;5056922;28;20025;-90
2020/12/15 02:16:24;;;;;;;11.17;5.87;;;5.90;88.90;;;;;;5056813;28;20487;-90
2020/12/15 02:18:50;;;;;;;9.23;5.23;;;5.90;88.80;;;;;;5074066;28;20032;-90
2020/12/15 02:21:15;;;;;;;11.47;5.63;;;5.90;88.60;;;;;;5056857;28;20025;-89
2020/12/15 02:23:41;;;;;;;10.87;5.50;;;6.00;88.70;;;;;;5074043;28;20025;-90
2020/12/15 02:26:08;;;;;;;10.27;5.77;;;6.10;88.50;;;;;;5074080;28;20032;-89
2020/12/15 02:28:35;;;;;;;10.77;5.17;;;6.10;87.90;;;;;;5056115;28;20138;-89
2020/12/15 02:31:01;;;;;;;11.00;5.93;;;6.10;88.10;;;;;;5074207;28;20051;-89
2020/12/15 02:33:27;;;;;;;8.90;5.23;;;6.10;88.00;;;;;;5056152;28;20040;-88
2020/12/15 02:35:52;;;;;;;10.73;5.50;;;6.10;87.80;;;;;;5056639;28;20047;-89
2020/12/15 02:38:18;;;;;;;12.73;6.20;;;6.10;88.00;;;;;;5056507;28;20028;-89
2020/12/15 02:40:44;;;;;;;10.70;5.73;;;6.10;87.90;;;;;;5055748;28;20087;-89
2020/12/15 02:43:10;;;;;;;11.63;5.50;;;6.10;87.80;;;;;;5055443;28;20032;-90
2020/12/15 02:45:36;;;;;;;9.37;5.40;;;6.20;88.10;;;;;;5056122;28;20024;-89
2020/12/15 02:48:02;;;;;;;8.00;5.47;;;6.20;88.30;;;;;;5056741;28;20453;-90
2020/12/15 02:50:28;;;;;;;9.70;5.30;;;6.10;88.30;;;;;;5056131;28;20108;-87
2020/12/15 02:52:53;;;;;;;9.67;5.27;;;6.20;89.00;;;;;;5056456;28;20032;-90
2020/12/15 02:55:19;;;;;;;9.37;5.37;;;6.20;88.30;;;;;;5056357;28;20485;-90
2020/12/15 02:57:51;;;;;;;10.97;5.20;;;6.20;88.40;;;;;;5055850;28;20041;-90
2020/12/15 03:00:19;;;;;;;8.50;5.05;;;6.20;88.30;;;;;;5056300;28;20132;-90
2020/12/15 03:02:46;;;;;;;8.60;4.77;;;6.20;88.60;;;;;;5055790;28;20037;-89
2020/12/15 03:05:12;;;;;;;9.57;5.20;;;6.20;88.70;;;;;;5056061;28;20040;-89
2020/12/15 03:07:37;;;;;;;9.37;5.57;;;6.20;88.60;;;;;;5073767;28;20492;-90
2020/12/15 03:10:05;;;;;;;8.00;5.20;;;6.30;88.90;;;;;;5056513;28;20020;-89
2020/12/15 03:12:31;;;;;;;10.37;5.53;;;6.20;88.80;;;;;;5055522;28;20055;-89
2020/12/15 03:14:56;;;;;;;9.87;5.37;;;6.20;89.20;;;;;;5056515;28;20043;-90
2020/12/15 03:17:22;;;;;;;9.03;5.23;;;6.20;89.10;;;;;;5056288;28;20048;-89
2020/12/15 03:19:47;;;;;;;9.40;5.60;;;6.20;89.40;;;;;;5055767;28;20029;-88
2020/12/15 03:22:14;;;;;;;8.60;5.27;;;6.20;89.70;;;;;;5055960;28;20089;-89
2020/12/15 03:24:40;;;;;;;7.67;5.03;;;6.20;89.50;;;;;;5055409;28;20071;-89
2020/12/15 03:27:05;;;;;;;9.80;5.10;;;6.30;89.50;;;;;;5056203;28;20024;-90
2020/12/15 03:29:31;;;;;;;11.07;5.43;;;6.30;89.40;;;;;;5055665;28;20063;-89
2020/12/15 03:31:56;;;;;;;11.13;5.27;;;6.30;89.40;;;;;;5073694;28;20025;-90
2020/12/15 03:34:22;;;;;;;8.90;5.27;;;6.30;89.60;;;;;;5056063;28;20081;-90
2020/12/15 03:36:48;;;;;;;9.87;5.13;;;6.20;89.80;;;;;;5073142;28;20032;-90
2020/12/15 03:39:14;;;;;;;8.37;5.13;;;6.30;90.00;;;;;;5055796;28;20123;-90
2020/12/15 03:41:39;;;;;;;10.77;5.00;;;6.30;90.00;;;;;;5055183;28;20060;-89
2020/12/15 03:44:05;;;;;;;9.73;5.33;;;6.30;90.00;;;;;;5056304;28;20021;-90
2020/12/15 03:46:31;;;;;;;11.73;5.23;;;6.30;89.90;;;;;;5055982;28;20029;-90
2020/12/15 03:48:56;;;;;;;8.83;5.33;;;6.30;90.00;;;;;;5055610;28;20111;-90
2020/12/15 03:51:22;;;;;;;8.70;4.90;;;6.30;90.00;;;;;;5073519;28;20104;-90
2020/12/15 03:53:48;;;;;;;8.50;4.77;;;6.30;90.10;;;;;;5055600;28;20020;-89
2020/12/15 03:56:13;;;;;;;11.17;5.57;;;6.30;90.10;;;;;;5059726;28;20025;-90
2020/12/15 03:58:40;;;;;;;7.77;4.87;;;6.40;90.00;;;;;;5058866;28;20103;-90
2020/12/15 04:01:06;;;;;;;8.70;5.43;;;6.30;90.00;;;;;;5059315;28;20470;-89
2020/12/15 04:03:32;;;;;;;8.27;5.43;;;6.30;90.10;;;;;;5059223;28;20074;-90
2020/12/15 04:05:58;;;;;;;8.97;5.20;;;6.30;90.20;;;;;;5059305;28;20020;-90
2020/12/15 04:08:25;;;;;;;9.80;5.30;;;6.20;90.30;;;;;;5059135;28;20083;-90
2020/12/15 04:10:52;;;;;;;8.10;5.23;;;6.20;90.40;;;;;;5058770;28;20183;-90
2020/12/15 04:13:18;;;;;;;7.33;4.77;;;6.20;90.40;;;;;;5059209;28;20370;-90
2020/12/15 04:15:45;;;;;;;9.33;5.80;;;6.20;90.50;;;;;;5058696;28;20021;-89
2020/12/15 04:18:11;;;;;;;11.13;6.00;;;6.20;90.40;;;;;;5077120;28;20031;-89
2020/12/15 04:20:37;;;;;;;7.37;5.10;;;6.20;90.50;;;;;;5076425;28;20025;-89
2020/12/15 04:23:03;;;;;;;7.27;4.83;;;6.30;90.50;;;;;;5058937;28;20488;-90
2020/12/15 04:25:28;;;;;;;8.87;5.03;;;6.30;90.50;;;;;;5076572;28;20028;-90
2020/12/15 04:27:54;;;;;;;10.00;5.43;;;6.30;90.40;;;;;;5058241;28;20036;-90
2020/12/15 04:30:20;;;;;;;10.47;5.17;;;6.30;90.50;;;;;;5058932;28;20024;-89
2020/12/15 04:32:46;;;;;;;8.63;5.23;;;6.30;90.60;;;;;;5058367;28;20032;-90
2020/12/15 04:35:13;;;;;;;8.03;4.80;;;6.20;90.60;;;;;;5058836;28;20020;-90
2020/12/15 04:37:38;;;;;;;9.07;5.30;;;6.30;90.60;;;;;;5058223;28;20033;-90
2020/12/15 04:40:04;;;;;;;6.23;4.53;;;6.30;90.70;;;;;;5058579;28;20032;-90
2020/12/15 04:42:30;;;;;;;11.97;5.30;;;6.30;90.70;;;;;;5058891;28;20526;-90
2020/12/15 04:44:56;;;;;;;6.97;4.60;;;6.30;90.50;;;;;;5075706;28;20028;-90
2020/12/15 04:47:35;;;;;;;7.70;5.00;;;6.30;90.60;;;;;;5058495;28;20480;-90
2020/12/15 04:50:09;;;;;;;8.40;4.87;;;6.30;90.50;;;;;;5058580;28;20027;-90
2020/12/15 04:52:52;;;;;;;7.80;5.03;;;6.40;90.50;;;;;;5058339;28;20039;-90
2020/12/15 04:55:19;;;;;;;6.73;4.57;;;6.40;90.50;;;;;;5058445;28;20028;-90
2020/12/15 04:57:46;;;;;;;8.30;5.30;;;6.40;90.40;;;;;;5057976;28;20492;-90
2020/12/15 05:00:12;;;;;;;8.70;4.57;;;6.40;90.80;;;;;;5075879;28;20056;-90
2020/12/15 05:02:43;;;;;;;10.17;5.30;;;6.40;90.50;;;;;;5057944;28;20028;-90
2020/12/15 05:05:09;;;;;;;7.50;4.57;;;6.50;90.40;;;;;;5058556;28;20029;-90
2020/12/15 05:07:43;;;;;;;10.63;5.50;;;6.50;90.40;;;;;;5074529;28;20469;-90
2020/12/15 05:10:13;;;;;;;10.00;5.67;;;6.50;90.30;;;;;;5075887;28;20016;-90
2020/12/15 05:12:39;;;;;;;7.93;4.90;;;6.40;90.20;;;;;;5075242;28;20036;-89
2020/12/15 05:15:12;;;;;;;9.23;5.60;;;6.50;90.30;;;;;;5058019;28;20052;-90
2020/12/15 05:17:39;;;;;;;11.00;5.23;;;6.50;90.30;;;;;;5075083;28;20020;-89
2020/12/15 05:20:28;;;;;;;9.33;4.63;;;6.50;90.40;;;;;;5058233;28;20078;-90
2020/12/15 05:22:54;;;;;;;8.33;4.83;;;6.50;90.40;;;;;;5057401;28;20024;-90
2020/12/15 05:25:28;;;;;;;9.37;5.07;;;6.50;90.40;;;;;;5058006;28;20090;-90
2020/12/15 05:27:56;;;;;;;8.57;5.00;;;6.60;90.30;;;;;;5057697;28;20028;-89
2020/12/15 05:30:22;;;;;;;9.23;5.37;;;6.60;90.30;;;;;;5075484;28;20103;-90
2020/12/15 05:32:53;;;;;;;8.00;4.87;;;6.50;90.20;;;;;;5057106;28;20032;-90
2020/12/15 05:35:24;;;;;;;9.20;4.80;;;6.60;90.20;;;;;;5057336;28;20031;-90
2020/12/15 05:37:49;;;;;;;8.40;4.90;;;6.60;90.20;;;;;;5074946;28;20097;-90
2020/12/15 05:40:15;;;;;;;9.57;5.60;;;6.60;90.20;;;;;;5057359;28;20481;-90
2020/12/15 05:42:41;;;;;;;14.53;7.10;;;6.60;90.20;;;;;;5057018;28;20056;-90
2020/12/15 05:45:07;;;;;;;11.47;6.47;;;6.60;90.10;;;;;;5057231;28;20024;-90
2020/12/15 05:47:33;;;;;;;12.50;6.20;;;6.60;90.20;;;;;;5057346;28;20162;-89
2020/12/15 05:49:59;;;;;;;11.83;5.73;;;6.60;90.20;;;;;;5074573;28;20039;-89
2020/12/15 05:52:28;;;;;;;10.10;5.73;;;6.50;90.20;;;;;;5057426;28;20032;-89
2020/12/15 05:55:05;;;;;;;9.27;6.07;;;6.50;90.20;;;;;;5056823;28;20028;-90
2020/12/15 05:57:31;;;;;;;11.33;5.33;;;6.50;90.20;;;;;;5074460;28;20151;-90
2020/12/15 06:00:15;;;;;;;13.43;5.87;;;6.50;90.20;;;;;;5056876;28;20055;-89
2020/12/15 06:02:41;;;;;;;13.07;5.73;;;6.50;90.20;;;;;;5056603;28;20025;-88
2020/12/15 06:05:07;;;;;;;9.30;5.27;;;6.50;90.30;;;;;;5057141;28;20056;-90
2020/12/15 06:07:34;;;;;;;9.70;5.17;;;6.60;90.40;;;;;;5056718;28;20381;-89
2020/12/15 06:10:01;;;;;;;10.47;5.80;;;6.60;90.40;;;;;;5056426;28;20235;-90
2020/12/15 06:12:27;;;;;;;11.50;5.80;;;6.60;90.40;;;;;;5074623;28;20033;-89
2020/12/15 06:14:53;;;;;;;13.70;5.87;;;6.60;90.50;;;;;;5069241;28;20020;-89
2020/12/15 06:17:23;;;;;;;9.50;5.30;;;6.50;90.30;;;;;;5073833;28;20509;-89
2020/12/15 06:19:57;;;;;;;11.93;5.27;;;6.50;90.50;;;;;;5075407;28;20027;-88
2020/12/15 06:22:25;;;;;;;10.13;5.70;;;6.50;90.50;;;;;;5076174;28;20024;-88
2020/12/15 06:24:58;;;;;;;12.13;5.67;;;6.40;90.30;;;;;;5095123;28;20021;-89
2020/12/15 06:27:35;;;;;;;11.93;5.93;;;6.40;90.60;;;;;;5076710;28;20036;-88
2020/12/15 06:30:03;;;;;;;12.13;5.17;;;6.50;90.60;;;;;;5077210;28;20217;-89
2020/12/15 06:32:28;;;;;;;12.10;5.60;;;6.50;90.50;;;;;;5071787;28;20032;-90
2020/12/15 06:34:54;;;;;;;10.10;5.23;;;6.50;90.60;;;;;;5074767;28;20074;-89
2020/12/15 06:37:23;;;;;;;12.47;5.63;;;6.50;90.60;;;;;;5074706;28;20021;-89
2020/12/15 06:40:01;;;;;;;10.33;5.67;;;6.50;90.50;;;;;;5073403;28;20028;-89
2020/12/15 06:42:29;;;;;;;12.13;5.53;;;6.50;90.60;;;;;;5074319;28;20024;-89
2020/12/15 06:45:07;;;;;;;11.27;5.97;;;6.50;90.50;;;;;;5056126;28;20534;-89
2020/12/15 06:47:33;;;;;;;12.80;6.57;;;6.50;90.50;;;;;;5056892;28;20052;-89
2020/12/15 06:50:15;;;;;;;12.60;5.70;;;6.50;90.40;;;;;;5055906;28;20020;-89
2020/12/15 06:52:42;;;;;;;9.00;4.40;;;6.50;90.40;;;;;;5056479;28;20033;-90
2020/12/15 06:55:07;;;;;;;9.60;5.90;;;6.50;90.60;;;;;;5056699;28;20033;-89
2020/12/15 06:57:34;;;;;;;10.20;5.50;;;6.60;90.50;;;;;;5074372;28;20362;-89
2020/12/15 07:00:05;;;;;;;12.60;6.37;;;6.60;90.40;;;;;;5056258;28;20031;-88
2020/12/15 07:02:32;;;;;;;11.57;6.67;;;6.60;90.40;;;;;;5056549;28;20035;-89
2020/12/15 07:05:12;;;;;;;13.23;6.30;;;6.60;90.30;;;;;;5055807;28;20025;-89
2020/12/15 07:07:46;;;;;;;10.33;5.37;;;6.60;90.30;;;;;;5056434;28;20020;-89
2020/12/15 07:10:12;;;;;;;9.17;5.53;;;6.60;90.30;;;;;;5056190;28;20190;-89
2020/12/15 07:12:41;;;;;;;8.60;5.30;;;6.60;90.30;;;;;;5073851;28;20036;-90
2020/12/15 07:15:06;;;;;;;10.30;5.83;;;6.60;90.50;;;;;;5055568;28;20047;-90
2020/12/15 07:17:33;;;;;;;10.47;5.73;;;6.70;90.50;;;;;;5056122;28;20465;-90
2020/12/15 07:20:01;;;;;;;9.70;5.23;;;6.70;90.50;;;;;;5055701;28;20063;-89
2020/12/15 07:22:26;;;;;;;12.13;6.00;;;6.60;90.60;;;;;;5056321;28;20028;-89
2020/12/15 07:24:52;;;;;;;9.87;6.03;;;6.60;90.60;;;;;;5055865;28;20465;-89
2020/12/15 07:27:20;;;;;;;9.70;5.43;;;6.60;90.70;;;;;;5055993;28;20036;-90
2020/12/15 07:29:55;;;;;;;12.47;5.93;;;6.60;90.80;;;;;;5074842;28;20469;-89
2020/12/15 07:32:21;;;;;;;11.77;6.27;;;6.60;91.00;;;;;;5059765;28;20511;-89
2020/12/15 07:34:46;;;;;;;10.43;5.43;;;6.60;90.90;;;;;;5077072;28;20020;-89
2020/12/15 07:37:18;;;;;;;11.40;5.97;;;6.60;90.80;;;;;;5077223;28;20029;-90
2020/12/15 07:39:45;;;;;;;10.45;5.63;;;6.60;90.80;;;;;;5059964;28;20024;-88
2020/12/15 07:42:11;;;;;;;11.73;6.10;;;6.60;90.70;;;;;;5077459;28;20040;-88
2020/12/15 07:44:36;;;;;;;13.10;6.27;;;6.60;90.80;;;;;;5059940;28;20111;-88
2020/12/15 07:47:03;;;;;;;11.53;5.90;;;6.60;90.70;;;;;;5077073;28;20033;-88
2020/12/15 07:49:28;;;;;;;9.37;5.23;;;6.70;90.70;;;;;;5059797;28;20025;-88
2020/12/15 07:51:54;;;;;;;13.00;6.43;;;6.70;90.70;;;;;;5076433;28;20106;-89
2020/12/15 07:54:20;;;;;;;12.43;6.87;;;6.70;90.70;;;;;;5059409;28;20116;-88
2020/12/15 07:56:47;;;;;;;9.30;5.83;;;6.70;90.80;;;;;;5059131;28;20029;-88
2020/12/15 07:59:15;;;;;;;10.00;6.20;;;6.70;90.80;;;;;;5059462;28;20037;-89
2020/12/15 08:01:41;;;;;;;10.10;5.97;;;6.80;90.80;;;;;;5077242;28;20116;-89
2020/12/15 08:04:11;;;;;;;12.53;5.77;;;6.70;90.70;;;;;;5058613;28;20032;-88
2020/12/15 08:06:48;;;;;;;10.03;5.80;;;6.80;90.80;;;;;;5059448;28;20020;-89
2020/12/15 08:09:16;;;;;;;12.57;5.70;;;6.80;90.80;;;;;;5059514;28;20078;-89
2020/12/15 08:11:46;;;;;;;12.07;5.97;;;6.80;90.80;;;;;;5077132;28;20039;-88
2020/12/15 08:14:14;;;;;;;14.77;6.90;;;6.80;90.90;;;;;;5076838;28;20449;-89
2020/12/15 08:16:41;;;;;;;11.33;6.37;;;6.90;90.90;;;;;;5059191;28;20125;-88
2020/12/15 08:19:07;;;;;;;14.40;6.73;;;6.90;90.90;;;;;;5058414;28;20108;-89
2020/12/15 08:21:50;;;;;;;13.67;6.43;;;6.80;91.00;;;;;;5059098;28;20031;-89
2020/12/15 08:24:27;;;;;;;14.67;6.50;;;6.80;91.10;;;;;;5059133;28;20025;-89
2020/12/15 08:26:56;;;;;;;11.57;6.37;;;6.80;91.10;;;;;;5058187;28;20504;-88
2020/12/15 08:29:28;;;;;;;9.83;5.97;;;6.90;91.00;;;;;;5058786;28;20036;-89
2020/12/15 08:31:54;;;;;;;;;;;6.90;90.90;;;;;;5059006;28;20100;-88
2020/12/15 08:34:21;;;;;;;11.70;5.90;;;7.00;90.90;;;;;;5058815;28;19966;-88
2020/12/15 08:36:49;;;;;;;12.93;6.00;;;7.00;90.80;;;;;;5058810;28;20071;-88
2020/12/15 08:39:18;;;;;;;15.00;6.90;;;7.00;90.80;;;;;;5076577;28;20038;-88
2020/12/15 08:42:02;;;;;;;11.20;6.60;;;7.10;90.90;;;;;;5074623;28;20048;-88
2020/12/15 08:44:34;;;;;;;13.17;6.43;;;7.10;90.80;;;;;;5076366;28;20021;-89
2020/12/15 08:47:00;;;;;;;;;;;7.10;90.80;;;;;;5058695;28;20067;-89
2020/12/15 08:49:27;;;;;;;11.40;6.77;;;7.10;90.90;;;;;;5076159;28;19904;-88
2020/12/15 08:51:54;;;;;;;11.07;6.40;;;7.10;91.00;;;;;;5058001;28;20037;-88
2020/12/15 08:54:21;;;;;;;10.77;6.63;;;7.10;91.00;;;;;;5058812;28;20469;-88
2020/12/15 08:56:47;;;;;;;14.47;6.53;;;7.10;91.10;;;;;;5058499;28;20101;-88
2020/12/15 08:59:25;;;;;;;15.67;6.90;;;7.10;91.10;;;;;;5058326;28;20028;-88
2020/12/15 09:01:58;;;;;;;12.30;6.57;;;7.10;91.00;;;;;;5058194;28;20590;-87
2020/12/15 09:04:26;;;;;;;13.87;6.80;;;7.10;91.00;;;;;;5058785;28;20051;-88
2020/12/15 09:06:52;;;;;;;11.57;6.30;;;7.10;91.10;;;;;;5075755;28;20115;-88
2020/12/15 09:09:26;;;;;;;10.37;6.30;;;7.20;91.00;;;;;;5058610;28;20125;-88
2020/12/15 09:11:56;;;;;;;11.80;6.27;;;7.20;91.00;;;;;;5058482;28;20040;-84
2020/12/15 09:14:22;;;;;;;15.03;6.47;;;7.10;91.00;;;;;;5058820;28;20115;-87
2020/12/15 09:16:48;;;;;;;13.23;6.60;;;7.20;91.00;;;;;;5059310;28;20472;-86
2020/12/15 09:19:26;;;;;;;14.27;6.40;;;7.20;91.00;;;;;;5058221;28;20021;-86
2020/12/15 09:22:06;;;;;;;10.13;5.70;;;7.20;91.20;;;;;;5075905;28;20043;-87
2020/12/15 09:24:34;;;;;;;13.33;6.87;;;7.20;91.10;;;;;;5057969;28;20029;-88
2020/12/15 09:27:00;;;;;;;10.63;5.83;;;7.30;91.10;;;;;;5057248;28;20552;-87
2020/12/15 09:29:29;;;;;;;13.80;7.00;;;7.30;91.10;;;;;;5076213;28;20065;-87
2020/12/15 09:31:59;;;;;;;16.10;6.27;;;7.30;91.00;;;;;;5057754;28;20028;-87
2020/12/15 09:34:25;;;;;;;14.07;6.50;;;7.40;91.00;;;;;;5057989;28;20050;-87
2020/12/15 09:36:59;;;;;;;13.50;6.07;;;7.30;90.90;;;;;;5075365;28;20085;-86
2020/12/15 09:39:27;;;;;;;10.80;6.33;;;7.40;91.00;;;;;;5057911;28;20078;-86
2020/12/15 09:41:56;;;;;;;10.73;6.37;;;7.40;90.90;;;;;;5056825;28;20063;-87
2020/12/15 09:44:22;;;;;;;11.10;6.03;;;7.50;90.80;;;;;;5075665;28;20059;-88
2020/12/15 09:46:48;;;;;;;17.33;6.43;;;7.50;90.80;;;;;;5057985;28;20033;-87
2020/12/15 09:49:14;;;;;;;11.37;6.23;;;7.50;90.80;;;;;;5057242;28;20035;-87
2020/12/15 09:51:42;;;;;;;13.07;6.47;;;7.60;90.70;;;;;;5057277;28;20035;-87
2020/12/15 09:54:09;;;;;;;12.23;6.20;;;7.60;90.70;;;;;;5074526;28;20449;-87
2020/12/15 09:56:36;;;;;;;13.73;6.43;;;7.70;90.60;;;;;;5075046;28;20059;-87
2020/12/15 09:59:02;;;;;;;17.83;7.30;;;7.70;90.50;;;;;;5057113;28;20037;-88
2020/12/15 10:01:28;;;;;;;12.20;6.17;;;7.80;90.50;;;;;;5058038;28;20032;-88
2020/12/15 10:03:54;;;;;;;13.50;6.60;;;7.80;90.40;;;;;;5074842;28;20446;-88
2020/12/15 10:06:20;;;;;;;12.63;6.50;;;7.80;90.30;;;;;;5075197;28;20025;-88
2020/12/15 10:08:46;;;;;;;15.03;6.77;;;7.80;90.30;;;;;;5057672;28;20043;-88
2020/12/15 10:11:14;;;;;;;13.80;6.80;;;7.90;90.30;;;;;;5057089;28;20025;-88
2020/12/15 10:13:40;;;;;;;13.40;6.70;;;7.90;90.20;;;;;;5075231;28;20426;-88
2020/12/15 10:16:06;;;;;;;14.27;7.53;;;7.90;90.20;;;;;;5074781;28;20036;-88
2020/12/15 10:18:32;;;;;;;14.03;7.50;;;7.90;90.20;;;;;;5075082;28;20083;-88
2020/12/15 10:20:58;;;;;;;13.37;7.70;;;7.90;90.10;;;;;;5056661;28;20020;-88
2020/12/15 10:23:24;;;;;;;14.33;7.60;;;7.90;90.20;;;;;;5057084;28;20119;-87
2020/12/15 10:25:50;;;;;;;14.07;6.90;;;8.00;90.30;;;;;;5056483;28;20052;-88
2020/12/15 10:28:16;;;;;;;15.70;7.83;;;8.00;90.40;;;;;;5056347;28;20485;-88
2020/12/15 10:30:42;;;;;;;14.27;7.77;;;8.00;90.40;;;;;;5057061;28;20483;-86
2020/12/15 10:33:09;;;;;;;13.47;7.13;;;8.00;90.40;;;;;;5056126;28;20112;-88
2020/12/15 10:35:35;;;;;;;13.10;6.70;;;8.10;90.40;;;;;;5056893;28;20128;-88
2020/12/15 10:38:02;;;;;;;13.67;7.83;;;8.10;90.40;;;;;;5056133;28;20044;-88
2020/12/15 10:40:28;;;;;;;10.57;6.40;;;;;;;;;;5056284;28;20370;-87
2020/12/15 10:42:54;;;;;;;13.07;7.47;;;8.10;90.20;;;;;;5074297;28;20035;-88
2020/12/15 10:45:20;;;;;;;12.70;7.60;;;8.10;90.40;;;;;;5074411;28;20469;-88
2020/12/15 10:47:48;;;;;;;14.70;7.43;;;8.10;90.50;;;;;;5075273;28;20032;-88
2020/12/15 10:50:15;;;;;;;14.27;7.63;;;8.10;90.40;;;;;;5056560;28;20078;-88
2020/12/15 10:52:41;;;;;;;12.00;7.10;;;8.20;90.30;;;;;;5056827;28;20033;-88
2020/12/15 10:55:07;;;;;;;13.83;7.33;;;8.20;90.20;;;;;;5056130;28;20066;-87
2020/12/15 10:57:36;;;;;;;14.30;8.20;;;8.20;90.50;;;;;;5057168;28;20066;-87
2020/12/15 11:00:04;;;;;;;12.23;7.20;;;8.20;90.40;;;;;;5073958;28;20462;-87
2020/12/15 11:02:30;;;;;;;14.85;7.68;;;8.20;90.40;;;;;;5075569;28;20078;-88
2020/12/15 11:04:57;;;;;;;13.17;7.63;;;8.30;90.40;;;;;;5072509;28;20021;-87
2020/12/15 11:07:23;;;;;;;12.87;6.93;;;8.30;90.40;;;;;;5077023;28;20055;-85
2020/12/15 11:09:49;;;;;;;14.07;7.83;;;8.40;90.40;;;;;;5078147;28;20465;-87
2020/12/15 11:12:15;;;;;;;13.57;6.90;;;8.40;90.10;;;;;;5063888;28;20028;-88
2020/12/15 11:14:41;;;;;;;12.17;7.20;;;8.40;90.00;;;;;;5060746;28;20032;-88
2020/12/15 11:17:07;;;;;;;16.70;7.90;;;8.50;90.30;;;;;;5077975;28;20020;-87
2020/12/15 11:19:33;;;;;;;13.80;7.57;;;8.50;90.30;;;;;;5060431;28;20025;-88
2020/12/15 11:21:59;;;;;;;13.98;7.55;;;8.60;90.30;;;;;;5060021;28;20033;-88
2020/12/15 11:24:24;;;;;;;15.82;8.15;;;8.60;90.20;;;;;;5060374;28;20469;-88
2020/12/15 11:26:50;;;;;;;12.27;7.32;;;8.60;90.30;;;;;;5060376;28;20020;-88
2020/12/15 11:29:16;;;;;;;10.88;6.63;;;8.60;90.30;;;;;;5059926;28;20060;-88
2020/12/15 11:31:42;;;;;;;10.80;5.53;;;8.60;89.20;;;;;;5060473;28;20063;-88
2020/12/15 11:34:08;;;;;;;12.48;6.32;;;8.40;88.20;;;;;;5077052;28;20056;-87
2020/12/15 11:36:34;;;;;;;11.00;6.13;;;8.50;87.30;;;;;;5077854;28;20025;-88
2020/12/15 11:38:59;;;;;;;10.40;5.47;;;8.40;87.10;;;;;;5077159;28;20107;-88
2020/12/15 11:41:29;;;;;;;11.60;5.30;;;8.50;86.30;;;;;;5059551;28;20044;-88
2020/12/15 11:43:58;;;;;;;9.83;4.97;;;8.50;86.40;;;;;;5077942;28;20481;-87
2020/12/15 11:46:24;;;;;;;10.90;5.57;;;8.50;86.00;;;;;;5077128;28;20028;-88
2020/12/15 11:48:49;;;;;;;9.70;5.10;;;8.50;86.00;;;;;;5059680;28;20354;-87
2020/12/15 11:51:19;;;;;;;9.15;5.30;;;8.40;85.70;;;;;;5059396;28;20032;-87
2020/12/15 11:53:47;;;;;;;10.85;5.43;;;8.40;85.60;;;;;;5059924;28;20028;-87
2020/12/15 11:56:18;;;;;;;10.77;5.55;;;8.40;85.90;;;;;;5077036;28;20040;-87
2020/12/15 11:58:44;;;;;;;10.43;5.57;;;8.40;86.10;;;;;;5059905;28;20484;-88
2020/12/15 12:01:10;;;;;;;10.10;5.20;;;8.40;86.10;;;;;;5059092;28;20035;-88
2020/12/15 12:03:36;;;;;;;10.93;5.10;;;8.40;85.80;;;;;;5059506;28;20111;-88
2020/12/15 12:06:03;;;;;;;10.17;5.20;;;8.40;85.80;;;;;;5076901;28;20059;-88
2020/12/15 12:08:29;;;;;;;9.93;5.03;;;8.40;85.50;;;;;;5059657;28;20039;-88
2020/12/15 12:10:54;;;;;;;8.50;5.47;;;8.40;85.90;;;;;;5076864;28;20107;-88
2020/12/15 12:13:20;;;;;;;9.85;4.97;;;8.40;86.20;;;;;;5076389;28;20112;-88
2020/12/15 12:15:46;;;;;;;8.90;5.40;;;8.40;86.20;;;;;;5059182;28;20123;-88
2020/12/15 12:18:12;;;;;;;10.23;5.13;;;8.40;86.40;;;;;;5058859;28;20029;-88
2020/12/15 12:20:38;;;;;;;8.00;4.70;;;8.40;86.40;;;;;;5076848;28;20017;-88
2020/12/15 12:23:04;;;;;;;12.07;5.88;;;8.50;86.30;;;;;;5058464;28;20124;-87
2020/12/15 12:25:30;;;;;;;11.93;6.47;;;8.50;86.40;;;;;;5076306;28;20028;-88
2020/12/15 12:27:56;;;;;;;10.77;5.90;;;8.50;86.40;;;;;;5058660;28;20366;-88
2020/12/15 12:30:22;;;;;;;9.30;5.90;;;8.50;86.30;;;;;;5058427;28;20280;-88
2020/12/15 12:32:50;;;;;;;10.93;6.07;;;8.50;86.70;;;;;;5058772;28;20025;-86
2020/12/15 12:35:16;;;;;;;9.23;5.90;;;8.50;86.80;;;;;;5058364;28;20033;-87
2020/12/15 12:37:42;;;;;;;10.97;6.33;;;8.50;86.70;;;;;;5076442;28;20037;-88
2020/12/15 12:40:07;;;;;;;12.80;6.90;;;8.50;86.70;;;;;;5075862;28;20060;-88
2020/12/15 12:42:33;;;;;;;13.10;6.53;;;8.40;87.00;;;;;;5058907;28;20060;-87
2020/12/15 12:44:59;;;;;;;10.90;6.00;;;8.40;87.50;;;;;;5058228;28;20542;-87
2020/12/15 12:47:25;;;;;;;13.75;6.68;;;8.40;87.70;;;;;;5057528;28;20024;-87
2020/12/15 12:49:50;;;;;;;14.35;7.47;;;8.40;87.60;;;;;;5058797;28;20028;-86
2020/12/15 12:52:16;;;;;;;14.95;7.10;;;8.50;87.20;;;;;;5057888;28;20029;-85